Weather at Vancouver International Airport

Public forecast

Using degrees Celsius for public forecast. Weather courtesy of forecast.io.

Current aviation weather report (METAR) for Vancouver International Airport

Report is more than 6 hours old.

Retrieved 2020/10/29 15:00 UTC (16 hours ago):

CYVR 291500Z 09008KT 20SM FEW025 BKN046 OVC058 11/10 A3014 RMK SC1SC7SC1 SC TR SLP207

Aviation forecast (TAF) for Vancouver International Airport

Retrieved 2020/10/30 06:45 UTC (41 minutes ago):

TAF CYVR 300542Z 3006/3112 10010KT P6SM OVC050 TEMPO 3006/3008 P6SM -RA OVC020 FM300800 12015G25KT 6SM -RA BR SCT008 OVC030 TEMPO 3008/3012 2SM RA BR OVC008 BECMG 3009/3011 16018G28KT FM301200 18018G28KT P6SM SCT012 OVC030 TEMPO 3012/3018 4SM -DZ BR OVC012 BECMG 3013/3015 26015G25KT FM310000 26015G25KT P6SM FEW050 FM310800 08008KT P6SM SCT020 RMK NXT FCST BY 300900Z